createdAt,value
2019-05-18T00:00:16.415Z,27.03
2019-05-18T00:02:43.845Z,26.63
2019-05-18T00:05:11.267Z,28.27
2019-05-18T00:07:38.682Z,25.30
2019-05-18T00:10:06.111Z,26.60
2019-05-18T00:12:33.550Z,26.30
2019-05-18T00:15:00.985Z,24.23
2019-05-18T00:17:28.400Z,25.40
2019-05-18T00:19:55.848Z,27.03
2019-05-18T00:22:23.254Z,24.57
2019-05-18T00:24:50.689Z,26.30
2019-05-18T00:27:18.102Z,26.93
2019-05-18T00:29:45.532Z,25.37
2019-05-18T00:32:12.943Z,26.73
2019-05-18T00:34:40.375Z,27.27
2019-05-18T00:37:07.817Z,27.90
2019-05-18T00:39:35.243Z,27.73
2019-05-18T00:42:02.667Z,28.00
2019-05-18T00:44:30.096Z,27.27
2019-05-18T00:46:57.536Z,26.27
2019-05-18T00:49:24.967Z,27.03
2019-05-18T00:51:52.409Z,24.83
2019-05-18T00:54:19.824Z,25.67
2019-05-18T00:56:47.265Z,25.07
2019-05-18T00:59:16.192Z,26.57
2019-05-18T01:01:42.130Z,23.80
2019-05-18T01:04:09.578Z,26.73
2019-05-18T01:06:36.975Z,28.40
2019-05-18T01:09:04.416Z,26.33
2019-05-18T01:11:31.831Z,25.70
2019-05-18T01:13:59.268Z,24.07
2019-05-18T01:16:26.745Z,26.87
2019-05-18T01:18:54.139Z,28.13
2019-05-18T01:21:21.562Z,26.80
2019-05-18T01:23:48.990Z,25.23
2019-05-18T01:26:16.404Z,26.40
2019-05-18T01:28:43.863Z,26.97
2019-05-18T01:31:11.274Z,30.43
2019-05-18T01:33:38.720Z,26.30
2019-05-18T01:36:06.141Z,28.33
2019-05-18T01:38:33.592Z,29.27
2019-05-18T01:41:01.003Z,26.20
2019-05-18T01:43:28.437Z,25.03
2019-05-18T01:45:55.841Z,25.10
2019-05-18T01:48:23.282Z,27.03
2019-05-18T01:50:50.735Z,26.83
2019-05-18T01:53:18.176Z,26.30
2019-05-18T01:55:45.602Z,27.80
2019-05-18T01:58:13.022Z,28.07
2019-05-18T02:00:40.435Z,26.67
2019-05-18T02:03:07.870Z,25.17
2019-05-18T02:05:35.315Z,24.90
2019-05-18T02:08:02.757Z,28.37
2019-05-18T02:10:30.185Z,26.63
2019-05-18T02:12:57.614Z,24.10
2019-05-18T02:15:25.064Z,23.03
2019-05-18T02:17:52.485Z,26.30
2019-05-18T02:20:19.995Z,29.33
2019-05-18T02:22:47.374Z,30.80
2019-05-18T02:25:14.820Z,27.97
2019-05-18T02:27:42.222Z,28.40
2019-05-18T02:30:09.655Z,27.83
2019-05-18T02:32:37.059Z,26.63
2019-05-18T02:35:07.524Z,25.17
2019-05-18T02:37:34.956Z,24.40
2019-05-18T02:40:02.348Z,23.70
2019-05-18T02:42:30.886Z,22.77
2019-05-18T02:44:57.194Z,23.80
2019-05-18T02:47:24.640Z,25.43
2019-05-18T02:49:52.064Z,25.30
2019-05-18T02:52:19.480Z,23.47
2019-05-18T02:54:46.913Z,22.97
2019-05-18T02:57:14.334Z,21.73
2019-05-18T02:59:41.768Z,22.20
2019-05-18T03:02:09.197Z,21.73
2019-05-18T03:04:36.611Z,21.43
2019-05-18T03:07:04.042Z,24.50
2019-05-18T03:09:31.464Z,24.63
2019-05-18T03:11:58.872Z,25.57
2019-05-18T03:14:26.314Z,25.93
2019-05-18T03:16:53.729Z,22.60
2019-05-18T03:19:21.178Z,24.30
2019-05-18T03:21:48.617Z,26.47
2019-05-18T03:24:16.041Z,22.70
2019-05-18T03:26:43.475Z,27.27
2019-05-18T03:29:10.897Z,24.50
2019-05-18T03:31:38.318Z,24.03
2019-05-18T03:34:05.767Z,25.83
2019-05-18T03:36:33.186Z,25.70
2019-05-18T03:39:00.629Z,27.20
2019-05-18T03:41:28.062Z,27.87
2019-05-18T03:43:55.492Z,28.87
2019-05-18T03:46:23.984Z,30.37
2019-05-18T03:48:50.335Z,29.57
2019-05-18T03:51:17.787Z,28.20
2019-05-18T03:53:45.214Z,29.83
2019-05-18T03:56:12.685Z,30.03
2019-05-18T03:58:40.072Z,27.30
2019-05-18T04:01:07.506Z,30.27
2019-05-18T04:03:34.926Z,30.73
2019-05-18T04:06:02.397Z,30.17
2019-05-18T04:08:29.783Z,27.33
2019-05-18T04:10:57.234Z,30.33
2019-05-18T04:13:24.653Z,29.73
2019-05-18T04:15:52.105Z,31.70
2019-05-18T04:18:19.535Z,33.40
2019-05-18T04:20:46.957Z,31.87
2019-05-18T04:23:14.407Z,31.23
2019-05-18T04:25:43.915Z,31.47
2019-05-18T04:28:09.259Z,33.60
2019-05-18T04:30:36.702Z,28.93
2019-05-18T04:33:04.155Z,32.43
2019-05-18T04:35:31.549Z,31.20
2019-05-18T04:37:58.989Z,29.73
2019-05-18T04:40:26.418Z,32.57
2019-05-18T04:42:53.880Z,33.27
2019-05-18T04:45:21.298Z,30.00
2019-05-18T04:47:49.067Z,33.90
2019-05-18T04:50:16.171Z,34.10
2019-05-18T04:52:43.628Z,34.97
2019-05-18T04:55:11.045Z,36.27
2019-05-18T04:57:38.505Z,30.00
2019-05-18T05:00:05.981Z,32.50
2019-05-18T05:02:33.436Z,32.30
2019-05-18T05:05:00.841Z,34.83
2019-05-18T05:07:28.316Z,35.17
2019-05-18T05:09:55.765Z,33.00
2019-05-18T05:12:23.196Z,34.60
2019-05-18T05:14:50.659Z,36.20
2019-05-18T05:17:18.080Z,38.67
2019-05-18T05:19:45.534Z,36.80
2019-05-18T05:22:12.982Z,39.03
2019-05-18T05:24:40.430Z,37.63
2019-05-18T05:27:07.877Z,39.70
2019-05-18T05:29:35.281Z,37.83
2019-05-18T05:32:02.747Z,37.53
2019-05-18T05:34:30.151Z,37.00
2019-05-18T05:36:57.616Z,35.67
2019-05-18T05:39:25.029Z,37.30
2019-05-18T05:41:52.477Z,37.53
2019-05-18T05:44:19.911Z,37.90
2019-05-18T05:46:47.370Z,40.63
2019-05-18T05:49:14.845Z,38.57
2019-05-18T05:51:42.238Z,38.67
2019-05-18T05:54:09.681Z,40.00
2019-05-18T05:56:37.096Z,37.70
2019-05-18T05:59:05.339Z,39.30
2019-05-18T06:01:32.750Z,41.17
2019-05-18T06:04:00.200Z,37.27
2019-05-18T06:06:27.671Z,37.60
2019-05-18T06:08:55.089Z,36.97
2019-05-18T06:11:22.555Z,36.80
2019-05-18T06:13:49.997Z,40.33
2019-05-18T06:16:17.445Z,40.47
2019-05-18T06:18:44.927Z,40.33
2019-05-18T06:21:12.324Z,38.27
2019-05-18T06:23:39.808Z,41.47
2019-05-18T06:26:07.269Z,39.77
2019-05-18T06:28:34.698Z,38.10
2019-05-18T06:31:02.154Z,38.50
2019-05-18T06:33:29.616Z,38.57
2019-05-18T06:35:57.101Z,39.07
2019-05-18T06:38:24.516Z,35.37
2019-05-18T06:40:51.936Z,37.83
2019-05-18T06:43:19.389Z,36.33
2019-05-18T06:45:46.843Z,39.33
2019-05-18T06:48:14.286Z,37.43
2019-05-18T06:50:41.727Z,39.80
2019-05-18T06:53:09.151Z,37.90
2019-05-18T06:55:36.609Z,37.43
2019-05-18T06:58:04.060Z,36.00
2019-05-18T07:00:31.475Z,36.93
2019-05-18T07:02:58.935Z,40.03
2019-05-18T07:05:26.361Z,35.00
2019-05-18T07:07:53.813Z,35.27
2019-05-18T07:10:21.316Z,37.70
2019-05-18T07:12:49.879Z,35.63
2019-05-18T07:15:17.335Z,38.70
2019-05-18T07:17:44.778Z,36.53
2019-05-18T07:20:12.190Z,33.77
2019-05-18T07:22:39.659Z,34.50
2019-05-18T07:25:07.080Z,34.30
2019-05-18T07:27:34.532Z,38.13
2019-05-18T07:30:01.971Z,37.90
2019-05-18T07:32:29.425Z,36.77
2019-05-18T07:34:56.867Z,40.40
2019-05-18T07:37:24.342Z,38.63
2019-05-18T07:39:51.742Z,39.80
2019-05-18T07:42:19.198Z,39.80
2019-05-18T07:44:47.656Z,41.23
2019-05-18T07:47:15.100Z,41.80
2019-05-18T07:49:42.577Z,42.07
2019-05-18T07:52:09.993Z,40.83
2019-05-18T07:54:37.457Z,42.20
2019-05-18T07:57:04.960Z,37.93
2019-05-18T07:59:33.402Z,38.67
2019-05-18T08:02:01.153Z,37.73
2019-05-18T08:04:28.510Z,40.43
2019-05-18T08:06:55.930Z,40.73
2019-05-18T08:09:23.416Z,45.53
2019-05-18T08:11:50.848Z,40.63
2019-05-18T08:14:19.058Z,37.33
2019-05-18T08:16:46.728Z,40.07
2019-05-18T08:19:14.177Z,41.77
2019-05-18T08:21:52.811Z,39.20
2019-05-18T08:24:09.092Z,34.20
2019-05-18T08:26:36.501Z,41.17
2019-05-18T08:29:03.962Z,43.73
2019-05-18T08:31:31.377Z,39.93
2019-05-18T08:33:58.844Z,43.43
2019-05-18T08:36:26.249Z,39.47
2019-05-18T08:38:53.680Z,39.70
2019-05-18T08:41:21.165Z,39.70
2019-05-18T08:43:48.599Z,39.40
2019-05-18T08:46:16.011Z,37.97
2019-05-18T08:48:43.506Z,39.67
2019-05-18T08:51:10.922Z,36.73
2019-05-18T08:53:38.376Z,34.33
2019-05-18T08:56:05.798Z,34.53
2019-05-18T08:58:33.275Z,33.40
2019-05-18T09:01:00.692Z,33.77
2019-05-18T09:03:28.116Z,32.90
2019-05-18T09:05:55.688Z,34.53
2019-05-18T09:08:23.037Z,32.03
2019-05-18T09:10:50.519Z,32.60
2019-05-18T09:13:17.968Z,33.27
2019-05-18T09:15:45.385Z,33.93
2019-05-18T09:18:12.846Z,32.13
2019-05-18T09:20:40.248Z,33.17
2019-05-18T09:23:07.719Z,33.30
2019-05-18T09:25:35.186Z,32.57
2019-05-18T09:28:02.605Z,32.07
2019-05-18T09:30:30.007Z,32.63
2019-05-18T09:32:57.445Z,31.57
2019-05-18T09:35:24.845Z,31.87
2019-05-18T09:37:52.293Z,34.00
2019-05-18T09:40:19.785Z,32.60
2019-05-18T09:42:47.237Z,32.53
2019-05-18T09:45:14.644Z,33.70
2019-05-18T09:47:42.080Z,31.80
2019-05-18T09:50:09.528Z,35.07
2019-05-18T09:52:45.065Z,33.70
2019-05-18T09:55:07.136Z,34.37
2019-05-18T09:57:34.568Z,31.43
2019-05-18T10:00:02.007Z,32.53
2019-05-18T10:02:29.477Z,32.00
2019-05-18T10:04:56.926Z,33.50
2019-05-18T10:07:24.375Z,33.13
2019-05-18T10:09:51.791Z,32.47
2019-05-18T10:12:19.242Z,33.93
2019-05-18T10:14:46.651Z,32.43
2019-05-18T10:17:14.099Z,31.83
2019-05-18T10:19:41.519Z,32.30
2019-05-18T10:22:08.938Z,32.67
2019-05-18T10:24:36.409Z,33.43
2019-05-18T10:27:03.834Z,32.10
2019-05-18T10:29:31.654Z,32.10
2019-05-18T10:31:59.134Z,33.97
2019-05-18T10:34:26.552Z,34.23
2019-05-18T10:36:53.998Z,32.87
2019-05-18T10:39:22.300Z,33.63
2019-05-18T10:41:49.716Z,31.77
2019-05-18T10:44:17.136Z,33.30
2019-05-18T10:46:44.607Z,31.47
2019-05-18T10:49:12.031Z,36.20
2019-05-18T10:51:39.443Z,30.90
2019-05-18T10:54:06.903Z,33.77
2019-05-18T10:56:34.328Z,34.80
2019-05-18T10:59:01.774Z,30.47
2019-05-18T11:01:29.188Z,32.78
2019-05-18T11:03:56.626Z,30.83
2019-05-18T11:06:24.078Z,32.57
2019-05-18T11:08:51.516Z,27.70
2019-05-18T11:11:18.956Z,30.83
2019-05-18T11:13:46.374Z,29.10
2019-05-18T11:16:13.805Z,29.23
2019-05-18T11:18:41.217Z,26.43
2019-05-18T11:21:08.757Z,29.93
2019-05-18T11:23:43.603Z,30.23
2019-05-18T11:26:03.577Z,30.27
2019-05-18T11:28:30.994Z,30.10
2019-05-18T11:30:58.442Z,23.90
2019-05-18T11:33:25.857Z,26.13
2019-05-18T11:35:53.302Z,29.07
2019-05-18T11:38:20.754Z,28.53
2019-05-18T11:40:48.206Z,28.53
2019-05-18T11:43:15.629Z,28.87
2019-05-18T11:45:43.054Z,26.33
2019-05-18T11:48:10.477Z,27.00
2019-05-18T11:50:37.911Z,26.23
2019-05-18T11:53:05.376Z,25.10
2019-05-18T11:55:32.760Z,24.37
2019-05-18T11:58:00.205Z,27.30
2019-05-18T12:00:27.618Z,28.20
2019-05-18T12:02:55.075Z,25.97
2019-05-18T12:05:22.471Z,23.97
2019-05-18T12:07:49.921Z,22.63
2019-05-18T12:10:18.590Z,23.20
2019-05-18T12:12:44.802Z,22.27
2019-05-18T12:15:12.258Z,22.50
2019-05-18T12:17:39.651Z,21.53
2019-05-18T12:20:07.141Z,18.93
2019-05-18T12:22:34.562Z,17.57
2019-05-18T12:25:02.018Z,14.80
2019-05-18T12:27:29.423Z,15.73
2019-05-18T12:29:56.844Z,17.63
2019-05-18T12:32:24.558Z,17.43
2019-05-18T12:34:52.047Z,16.93
2019-05-18T12:37:22.217Z,18.67
2019-05-18T12:39:49.641Z,20.10
2019-05-18T12:42:17.116Z,19.87
2019-05-18T12:44:44.535Z,20.03
2019-05-18T12:47:14.297Z,19.67
2019-05-18T12:49:39.402Z,19.03
2019-05-18T12:52:06.856Z,18.17
2019-05-18T12:54:46.214Z,14.20
2019-05-18T12:57:01.691Z,13.23
2019-05-18T12:59:29.130Z,16.60
2019-05-18T13:01:56.555Z,15.50
2019-05-18T13:04:23.985Z,15.37
2019-05-18T13:06:51.395Z,13.83
2019-05-18T13:09:18.816Z,12.90
2019-05-18T13:11:46.259Z,13.03
2019-05-18T13:14:13.698Z,9.70
2019-05-18T13:16:41.117Z,10.20
2019-05-18T13:19:08.556Z,10.13
2019-05-18T13:21:35.979Z,9.53
2019-05-18T13:24:03.405Z,10.17
2019-05-18T13:26:30.842Z,10.10
2019-05-18T13:28:58.267Z,7.57
2019-05-18T13:31:25.672Z,5.60
2019-05-18T13:33:53.106Z,5.13
2019-05-18T13:36:20.547Z,5.80
2019-05-18T13:38:47.974Z,5.60
2019-05-18T13:41:15.391Z,6.37
2019-05-18T13:43:42.788Z,7.10
2019-05-18T13:46:10.226Z,5.90
2019-05-18T13:48:37.652Z,6.90
2019-05-18T13:51:05.080Z,7.30
2019-05-18T13:53:32.488Z,8.00
2019-05-18T13:55:59.930Z,8.97
2019-05-18T13:58:27.343Z,8.70
2019-05-18T14:00:54.779Z,8.67
2019-05-18T14:03:22.208Z,8.80
2019-05-18T14:05:49.612Z,8.77
2019-05-18T14:08:17.053Z,8.27
2019-05-18T14:10:44.490Z,7.63
2019-05-18T14:13:11.903Z,7.30
2019-05-18T14:15:39.367Z,7.50
2019-05-18T14:18:06.780Z,8.40
2019-05-18T14:20:34.222Z,8.87
2019-05-18T14:23:01.649Z,8.10
2019-05-18T14:25:30.175Z,8.67
2019-05-18T14:27:57.579Z,9.70
2019-05-18T14:30:25.030Z,8.57
2019-05-18T14:32:52.473Z,9.80
2019-05-18T14:35:19.881Z,9.87
2019-05-18T14:37:47.301Z,9.50
2019-05-18T14:40:14.773Z,9.10
2019-05-18T14:42:42.199Z,8.97
2019-05-18T14:45:09.637Z,8.73
2019-05-18T14:47:37.051Z,9.23
2019-05-18T14:50:04.445Z,9.60
2019-05-18T14:52:31.873Z,9.37
2019-05-18T14:54:59.301Z,9.90
2019-05-18T14:57:26.732Z,10.37
2019-05-18T14:59:54.147Z,9.87
2019-05-18T15:02:21.707Z,9.07
2019-05-18T15:04:49.110Z,9.03
2019-05-18T15:07:16.533Z,9.50
2019-05-18T15:09:43.942Z,9.67
2019-05-18T15:12:11.342Z,9.30
2019-05-18T15:14:38.767Z,9.53
2019-05-18T15:17:06.186Z,9.03
2019-05-18T15:19:33.611Z,8.90
2019-05-18T15:22:01.040Z,8.30
2019-05-18T15:24:28.439Z,9.67
2019-05-18T15:26:55.847Z,8.67
2019-05-18T15:29:23.271Z,8.40
2019-05-18T15:31:50.684Z,9.20
2019-05-18T15:34:18.131Z,8.50
2019-05-18T15:36:45.583Z,8.37
2019-05-18T15:39:12.992Z,7.43
2019-05-18T15:41:40.421Z,8.10
2019-05-18T15:44:07.828Z,8.83
2019-05-18T15:46:35.287Z,7.77
2019-05-18T15:49:02.772Z,7.97
2019-05-18T15:51:30.213Z,8.30
2019-05-18T15:53:57.663Z,8.17
2019-05-18T15:56:25.062Z,7.83
2019-05-18T15:58:52.495Z,7.70
2019-05-18T16:01:19.964Z,8.10
2019-05-18T16:03:47.359Z,8.07
2019-05-18T16:06:14.784Z,8.33
2019-05-18T16:08:43.261Z,7.87
2019-05-18T16:11:10.683Z,7.90
2019-05-18T16:13:38.094Z,8.30
2019-05-18T16:16:05.551Z,7.50
2019-05-18T16:18:32.950Z,7.50
2019-05-18T16:21:00.349Z,6.57
2019-05-18T16:23:27.825Z,7.30
2019-05-18T16:25:55.266Z,6.83
2019-05-18T16:28:22.721Z,6.87
2019-05-18T16:30:50.179Z,5.93
2019-05-18T16:33:17.582Z,5.93
2019-05-18T16:35:44.997Z,7.07
2019-05-18T16:38:12.424Z,7.30
2019-05-18T16:40:39.904Z,11.33
2019-05-18T16:43:07.292Z,12.57
2019-05-18T16:45:34.727Z,14.40
2019-05-18T16:48:02.140Z,14.50
2019-05-18T16:50:29.585Z,13.87
2019-05-18T16:52:56.994Z,14.77
2019-05-18T16:55:24.431Z,13.07
2019-05-18T16:57:51.895Z,13.13
2019-05-18T17:00:19.313Z,12.47
2019-05-18T17:02:46.750Z,10.40
2019-05-18T17:05:14.175Z,8.93
2019-05-18T17:07:41.595Z,8.00
2019-05-18T17:10:09.043Z,7.30
2019-05-18T17:12:36.425Z,6.50
2019-05-18T17:15:03.853Z,5.60
2019-05-18T17:17:34.876Z,5.07
2019-05-18T17:19:58.696Z,4.80
2019-05-18T17:22:26.100Z,4.17
2019-05-18T17:24:53.547Z,4.67
2019-05-18T17:27:20.958Z,4.77
2019-05-18T17:29:48.758Z,5.27
2019-05-18T17:32:16.180Z,4.37
2019-05-18T17:34:43.575Z,4.07
2019-05-18T17:37:11.089Z,4.67
2019-05-18T17:39:38.497Z,4.70
2019-05-18T17:42:05.929Z,4.63
2019-05-18T17:44:33.350Z,4.37
2019-05-18T17:47:00.751Z,5.20
2019-05-18T17:49:28.246Z,5.23
2019-05-18T17:51:55.605Z,4.83
2019-05-18T17:54:23.017Z,5.47
2019-05-18T17:56:50.449Z,6.17
2019-05-18T17:59:17.865Z,6.20
2019-05-18T18:01:45.290Z,6.67
2019-05-18T18:04:14.139Z,6.17
2019-05-18T18:06:40.197Z,5.73
2019-05-18T18:09:07.612Z,6.20
2019-05-18T18:11:35.073Z,6.17
2019-05-18T18:14:02.526Z,6.87
2019-05-18T18:16:29.975Z,5.73
2019-05-18T18:18:57.371Z,6.53
2019-05-18T18:21:24.851Z,5.53
2019-05-18T18:23:55.058Z,5.70
2019-05-18T18:26:19.685Z,5.63
2019-05-18T18:28:47.112Z,5.73
2019-05-18T18:31:14.552Z,5.77
2019-05-18T18:33:41.998Z,5.93
2019-05-18T18:36:09.435Z,5.97
2019-05-18T18:38:36.844Z,5.13
2019-05-18T18:41:04.284Z,5.37
2019-05-18T18:43:31.709Z,5.10
2019-05-18T18:45:59.148Z,6.27
2019-05-18T18:48:26.681Z,5.57
2019-05-18T18:50:54.036Z,5.30
2019-05-18T18:53:21.460Z,5.67
2019-05-18T18:55:48.887Z,5.73
2019-05-18T18:58:16.339Z,5.80
2019-05-18T19:00:43.756Z,4.90
2019-05-18T19:03:11.177Z,5.93
2019-05-18T19:05:38.582Z,5.30
